sensor_id;sensor_type;location;lat;lon;timestamp;P1;durP1;ratioP1;P2;durP2;ratioP2
18425;SDS011;9340;48.756;9.226;2023-05-13T00:01:25;3.53;;;3.27;;
18425;SDS011;9340;48.756;9.226;2023-05-13T00:03:52;4.43;;;3.90;;
18425;SDS011;9340;48.756;9.226;2023-05-13T00:06:18;5.70;;;3.17;;
18425;SDS011;9340;48.756;9.226;2023-05-13T00:08:45;4.00;;;3.70;;
18425;SDS011;9340;48.756;9.226;2023-05-13T00:11:12;5.57;;;3.60;;
18425;SDS011;9340;48.756;9.226;2023-05-13T00:13:39;4.53;;;3.90;;
18425;SDS011;9340;48.756;9.226;2023-05-13T00:16:07;3.80;;;3.47;;
18425;SDS011;9340;48.756;9.226;2023-05-13T00:18:33;4.47;;;3.67;;
18425;SDS011;9340;48.756;9.226;2023-05-13T00:21:00;4.13;;;3.80;;
18425;SDS011;9340;48.756;9.226;2023-05-13T00:23:26;5.30;;;3.70;;
18425;SDS011;9340;48.756;9.226;2023-05-13T00:25:53;4.20;;;3.90;;
18425;SDS011;9340;48.756;9.226;2023-05-13T00:28:21;5.13;;;3.13;;
18425;SDS011;9340;48.756;9.226;2023-05-13T00:30:48;3.90;;;3.47;;
18425;SDS011;9340;48.756;9.226;2023-05-13T00:33:16;4.33;;;3.93;;
18425;SDS011;9340;48.756;9.226;2023-05-13T00:35:43;4.07;;;3.67;;
18425;SDS011;9340;48.756;9.226;2023-05-13T00:38:10;4.07;;;3.77;;
18425;SDS011;9340;48.756;9.226;2023-05-13T00:40:37;4.03;;;3.57;;
18425;SDS011;9340;48.756;9.226;2023-05-13T00:43:04;4.30;;;3.87;;
18425;SDS011;9340;48.756;9.226;2023-05-13T00:45:31;3.80;;;3.50;;
18425;SDS011;9340;48.756;9.226;2023-05-13T00:47:58;4.43;;;3.90;;
18425;SDS011;9340;48.756;9.226;2023-05-13T00:50:26;4.30;;;3.90;;
18425;SDS011;9340;48.756;9.226;2023-05-13T00:52:53;4.77;;;3.63;;
18425;SDS011;9340;48.756;9.226;2023-05-13T00:55:22;3.80;;;3.50;;
18425;SDS011;9340;48.756;9.226;2023-05-13T00:57:49;4.20;;;3.90;;
18425;SDS011;9340;48.756;9.226;2023-05-13T01:00:15;3.97;;;3.67;;
18425;SDS011;9340;48.756;9.226;2023-05-13T01:02:44;4.10;;;3.70;;
18425;SDS011;9340;48.756;9.226;2023-05-13T01:05:18;4.03;;;3.73;;
18425;SDS011;9340;48.756;9.226;2023-05-13T01:07:54;4.30;;;4.00;;
18425;SDS011;9340;48.756;9.226;2023-05-13T01:10:29;4.03;;;3.63;;
18425;SDS011;9340;48.756;9.226;2023-05-13T01:13:03;5.90;;;3.60;;
18425;SDS011;9340;48.756;9.226;2023-05-13T01:15:36;4.07;;;3.77;;
18425;SDS011;9340;48.756;9.226;2023-05-13T01:18:06;4.00;;;3.70;;
18425;SDS011;9340;48.756;9.226;2023-05-13T01:20:36;4.37;;;4.03;;
18425;SDS011;9340;48.756;9.226;2023-05-13T01:23:07;3.93;;;3.63;;
18425;SDS011;9340;48.756;9.226;2023-05-13T01:25:34;4.73;;;4.33;;
18425;SDS011;9340;48.756;9.226;2023-05-13T01:28:01;4.47;;;4.17;;
18425;SDS011;9340;48.756;9.226;2023-05-13T01:30:28;4.33;;;4.03;;
18425;SDS011;9340;48.756;9.226;2023-05-13T01:32:55;4.70;;;3.80;;
18425;SDS011;9340;48.756;9.226;2023-05-13T01:35:22;7.50;;;3.97;;
18425;SDS011;9340;48.756;9.226;2023-05-13T01:37:50;4.13;;;3.83;;
18425;SDS011;9340;48.756;9.226;2023-05-13T01:40:19;4.30;;;4.00;;
18425;SDS011;9340;48.756;9.226;2023-05-13T01:42:45;5.10;;;4.60;;
18425;SDS011;9340;48.756;9.226;2023-05-13T01:45:13;4.40;;;4.03;;
18425;SDS011;9340;48.756;9.226;2023-05-13T01:47:39;4.83;;;4.43;;
18425;SDS011;9340;48.756;9.226;2023-05-13T01:50:06;4.00;;;3.70;;
18425;SDS011;9340;48.756;9.226;2023-05-13T01:52:34;4.77;;;3.93;;
18425;SDS011;9340;48.756;9.226;2023-05-13T01:55:00;4.50;;;4.20;;
18425;SDS011;9340;48.756;9.226;2023-05-13T01:57:28;5.00;;;4.60;;
18425;SDS011;9340;48.756;9.226;2023-05-13T01:59:55;4.73;;;4.33;;
18425;SDS011;9340;48.756;9.226;2023-05-13T02:02:22;4.67;;;4.30;;
18425;SDS011;9340;48.756;9.226;2023-05-13T02:04:48;5.07;;;4.67;;
18425;SDS011;9340;48.756;9.226;2023-05-13T02:07:15;4.07;;;3.77;;
18425;SDS011;9340;48.756;9.226;2023-05-13T02:09:42;4.83;;;4.43;;
18425;SDS011;9340;48.756;9.226;2023-05-13T02:12:09;4.90;;;4.53;;
18425;SDS011;9340;48.756;9.226;2023-05-13T02:14:37;4.93;;;3.87;;
18425;SDS011;9340;48.756;9.226;2023-05-13T02:17:03;4.73;;;3.80;;
18425;SDS011;9340;48.756;9.226;2023-05-13T02:19:30;4.57;;;4.17;;
18425;SDS011;9340;48.756;9.226;2023-05-13T02:21:56;7.17;;;4.03;;
18425;SDS011;9340;48.756;9.226;2023-05-13T02:24:23;3.80;;;3.50;;
18425;SDS011;9340;48.756;9.226;2023-05-13T02:26:50;4.83;;;4.43;;
18425;SDS011;9340;48.756;9.226;2023-05-13T02:29:18;5.00;;;4.60;;
18425;SDS011;9340;48.756;9.226;2023-05-13T02:31:46;4.83;;;4.43;;
18425;SDS011;9340;48.756;9.226;2023-05-13T02:34:13;4.47;;;4.17;;
18425;SDS011;9340;48.756;9.226;2023-05-13T02:36:39;4.50;;;4.20;;
18425;SDS011;9340;48.756;9.226;2023-05-13T02:39:06;4.20;;;3.90;;
18425;SDS011;9340;48.756;9.226;2023-05-13T02:41:33;6.00;;;4.00;;
18425;SDS011;9340;48.756;9.226;2023-05-13T02:44:00;8.53;;;4.00;;
18425;SDS011;9340;48.756;9.226;2023-05-13T02:46:27;4.53;;;4.13;;
18425;SDS011;9340;48.756;9.226;2023-05-13T02:48:55;4.33;;;3.93;;
18425;SDS011;9340;48.756;9.226;2023-05-13T02:51:21;4.30;;;3.90;;
18425;SDS011;9340;48.756;9.226;2023-05-13T02:53:48;5.00;;;4.33;;
18425;SDS011;9340;48.756;9.226;2023-05-13T02:56:15;4.60;;;4.20;;
18425;SDS011;9340;48.756;9.226;2023-05-13T02:58:42;6.63;;;4.30;;
18425;SDS011;9340;48.756;9.226;2023-05-13T03:01:09;3.30;;;3.10;;
18425;SDS011;9340;48.756;9.226;2023-05-13T03:03:36;3.30;;;3.10;;
18425;SDS011;9340;48.756;9.226;2023-05-13T03:06:04;3.57;;;3.27;;
18425;SDS011;9340;48.756;9.226;2023-05-13T03:08:31;4.20;;;3.20;;
18425;SDS011;9340;48.756;9.226;2023-05-13T03:10:58;3.83;;;3.53;;
18425;SDS011;9340;48.756;9.226;2023-05-13T03:13:25;3.80;;;3.50;;
18425;SDS011;9340;48.756;9.226;2023-05-13T03:15:52;3.73;;;3.43;;
18425;SDS011;9340;48.756;9.226;2023-05-13T03:18:19;4.10;;;3.80;;
18425;SDS011;9340;48.756;9.226;2023-05-13T03:20:45;4.23;;;3.50;;
18425;SDS011;9340;48.756;9.226;2023-05-13T03:23:13;3.93;;;3.53;;
18425;SDS011;9340;48.756;9.226;2023-05-13T03:25:40;5.03;;;3.60;;
18425;SDS011;9340;48.756;9.226;2023-05-13T03:28:07;3.93;;;3.53;;
18425;SDS011;9340;48.756;9.226;2023-05-13T03:30:33;3.90;;;3.60;;
18425;SDS011;9340;48.756;9.226;2023-05-13T03:33:00;4.20;;;3.87;;
18425;SDS011;9340;48.756;9.226;2023-05-13T03:35:27;4.27;;;3.90;;
18425;SDS011;9340;48.756;9.226;2023-05-13T03:37:53;4.70;;;3.70;;
18425;SDS011;9340;48.756;9.226;2023-05-13T03:40:21;3.93;;;3.60;;
18425;SDS011;9340;48.756;9.226;2023-05-13T03:42:48;3.93;;;3.60;;
18425;SDS011;9340;48.756;9.226;2023-05-13T03:45:15;3.90;;;3.60;;
18425;SDS011;9340;48.756;9.226;2023-05-13T03:47:41;3.77;;;3.47;;
18425;SDS011;9340;48.756;9.226;2023-05-13T03:50:08;3.93;;;3.03;;
18425;SDS011;9340;48.756;9.226;2023-05-13T03:52:36;3.80;;;3.50;;
18425;SDS011;9340;48.756;9.226;2023-05-13T03:55:02;3.93;;;3.50;;
18425;SDS011;9340;48.756;9.226;2023-05-13T03:57:31;3.53;;;3.23;;
18425;SDS011;9340;48.756;9.226;2023-05-13T03:59:58;4.30;;;3.23;;
18425;SDS011;9340;48.756;9.226;2023-05-13T04:02:24;3.43;;;3.23;;
18425;SDS011;9340;48.756;9.226;2023-05-13T04:04:51;4.10;;;3.70;;
18425;SDS011;9340;48.756;9.226;2023-05-13T04:07:18;4.50;;;3.50;;
18425;SDS011;9340;48.756;9.226;2023-05-13T04:09:44;4.83;;;3.40;;
18425;SDS011;9340;48.756;9.226;2023-05-13T04:12:11;3.50;;;3.30;;
18425;SDS011;9340;48.756;9.226;2023-05-13T04:14:39;3.30;;;3.00;;
18425;SDS011;9340;48.756;9.226;2023-05-13T04:17:06;3.60;;;3.33;;
18425;SDS011;9340;48.756;9.226;2023-05-13T04:19:33;3.67;;;3.37;;
18425;SDS011;9340;48.756;9.226;2023-05-13T04:21:59;3.70;;;3.40;;
18425;SDS011;9340;48.756;9.226;2023-05-13T04:24:26;4.00;;;3.70;;
18425;SDS011;9340;48.756;9.226;2023-05-13T04:26:53;3.60;;;3.40;;
18425;SDS011;9340;48.756;9.226;2023-05-13T04:29:19;3.50;;;2.97;;
18425;SDS011;9340;48.756;9.226;2023-05-13T04:31:47;3.77;;;3.47;;
18425;SDS011;9340;48.756;9.226;2023-05-13T04:34:14;3.70;;;3.40;;
18425;SDS011;9340;48.756;9.226;2023-05-13T04:36:41;3.77;;;3.47;;
18425;SDS011;9340;48.756;9.226;2023-05-13T04:39:08;3.60;;;3.30;;
18425;SDS011;9340;48.756;9.226;2023-05-13T04:41:35;3.93;;;3.63;;
18425;SDS011;9340;48.756;9.226;2023-05-13T04:44:02;3.50;;;3.20;;
18425;SDS011;9340;48.756;9.226;2023-05-13T04:46:30;3.97;;;3.67;;
18425;SDS011;9340;48.756;9.226;2023-05-13T04:48:58;3.70;;;3.40;;
18425;SDS011;9340;48.756;9.226;2023-05-13T04:51:25;3.90;;;3.03;;
18425;SDS011;9340;48.756;9.226;2023-05-13T04:53:51;3.83;;;3.53;;
18425;SDS011;9340;48.756;9.226;2023-05-13T04:56:18;3.77;;;3.47;;
18425;SDS011;9340;48.756;9.226;2023-05-13T04:58:45;3.60;;;3.30;;
18425;SDS011;9340;48.756;9.226;2023-05-13T05:01:12;3.70;;;3.40;;
18425;SDS011;9340;48.756;9.226;2023-05-13T05:03:39;3.77;;;3.47;;
18425;SDS011;9340;48.756;9.226;2023-05-13T05:06:07;4.20;;;3.50;;
18425;SDS011;9340;48.756;9.226;2023-05-13T05:08:34;3.57;;;3.27;;
18425;SDS011;9340;48.756;9.226;2023-05-13T05:11:00;4.40;;;3.40;;
18425;SDS011;9340;48.756;9.226;2023-05-13T05:13:27;4.00;;;3.70;;
18425;SDS011;9340;48.756;9.226;2023-05-13T05:15:54;6.07;;;3.80;;
18425;SDS011;9340;48.756;9.226;2023-05-13T05:18:20;3.77;;;3.30;;
18425;SDS011;9340;48.756;9.226;2023-05-13T05:20:47;3.87;;;3.43;;
18425;SDS011;9340;48.756;9.226;2023-05-13T05:23:15;4.27;;;3.87;;
18425;SDS011;9340;48.756;9.226;2023-05-13T05:25:42;3.87;;;3.40;;
18425;SDS011;9340;48.756;9.226;2023-05-13T05:28:08;3.77;;;3.40;;
18425;SDS011;9340;48.756;9.226;2023-05-13T05:30:35;3.53;;;3.30;;
18425;SDS011;9340;48.756;9.226;2023-05-13T05:33:04;3.70;;;3.40;;
18425;SDS011;9340;48.756;9.226;2023-05-13T05:35:31;3.93;;;3.60;;
18425;SDS011;9340;48.756;9.226;2023-05-13T05:38:01;3.57;;;3.27;;
18425;SDS011;9340;48.756;9.226;2023-05-13T05:40:29;3.80;;;3.50;;
18425;SDS011;9340;48.756;9.226;2023-05-13T05:42:55;3.87;;;3.27;;
18425;SDS011;9340;48.756;9.226;2023-05-13T05:45:22;4.80;;;3.40;;
18425;SDS011;9340;48.756;9.226;2023-05-13T05:47:49;3.07;;;2.87;;
18425;SDS011;9340;48.756;9.226;2023-05-13T05:50:17;3.47;;;3.23;;
18425;SDS011;9340;48.756;9.226;2023-05-13T05:52:44;3.93;;;3.47;;
18425;SDS011;9340;48.756;9.226;2023-05-13T05:55:11;6.50;;;3.57;;
18425;SDS011;9340;48.756;9.226;2023-05-13T05:57:39;3.60;;;3.17;;
18425;SDS011;9340;48.756;9.226;2023-05-13T06:00:06;3.23;;;2.93;;
18425;SDS011;9340;48.756;9.226;2023-05-13T06:02:33;4.40;;;4.00;;
18425;SDS011;9340;48.756;9.226;2023-05-13T06:05:00;3.67;;;3.37;;
18425;SDS011;9340;48.756;9.226;2023-05-13T06:07:27;3.40;;;3.13;;
18425;SDS011;9340;48.756;9.226;2023-05-13T06:09:53;5.23;;;3.70;;
18425;SDS011;9340;48.756;9.226;2023-05-13T06:12:20;4.07;;;3.67;;
18425;SDS011;9340;48.756;9.226;2023-05-13T06:14:48;3.53;;;3.23;;
18425;SDS011;9340;48.756;9.226;2023-05-13T06:17:15;4.97;;;3.77;;
18425;SDS011;9340;48.756;9.226;2023-05-13T06:19:42;3.47;;;3.17;;
18425;SDS011;9340;48.756;9.226;2023-05-13T06:22:09;3.63;;;3.07;;
18425;SDS011;9340;48.756;9.226;2023-05-13T06:24:35;3.93;;;3.60;;
18425;SDS011;9340;48.756;9.226;2023-05-13T06:27:03;4.83;;;4.07;;
18425;SDS011;9340;48.756;9.226;2023-05-13T06:29:30;4.37;;;3.97;;
18425;SDS011;9340;48.756;9.226;2023-05-13T06:31:58;4.83;;;3.80;;
18425;SDS011;9340;48.756;9.226;2023-05-13T06:34:24;4.17;;;3.77;;
18425;SDS011;9340;48.756;9.226;2023-05-13T06:36:51;5.53;;;3.63;;
18425;SDS011;9340;48.756;9.226;2023-05-13T06:39:18;4.40;;;4.10;;
18425;SDS011;9340;48.756;9.226;2023-05-13T06:41:44;6.27;;;4.17;;
18425;SDS011;9340;48.756;9.226;2023-05-13T06:44:11;4.20;;;3.87;;
18425;SDS011;9340;48.756;9.226;2023-05-13T06:46:38;4.27;;;3.90;;
18425;SDS011;9340;48.756;9.226;2023-05-13T06:49:06;4.77;;;4.07;;
18425;SDS011;9340;48.756;9.226;2023-05-13T06:51:32;3.80;;;3.50;;
18425;SDS011;9340;48.756;9.226;2023-05-13T06:53:59;3.90;;;3.50;;
18425;SDS011;9340;48.756;9.226;2023-05-13T06:56:26;4.00;;;3.40;;
18425;SDS011;9340;48.756;9.226;2023-05-13T06:58:54;6.80;;;3.70;;
18425;SDS011;9340;48.756;9.226;2023-05-13T07:01:21;3.93;;;3.63;;
18425;SDS011;9340;48.756;9.226;2023-05-13T07:03:48;4.87;;;3.90;;
18425;SDS011;9340;48.756;9.226;2023-05-13T07:06:16;4.07;;;3.67;;
18425;SDS011;9340;48.756;9.226;2023-05-13T07:08:42;5.07;;;4.10;;
18425;SDS011;9340;48.756;9.226;2023-05-13T07:11:09;4.20;;;3.73;;
18425;SDS011;9340;48.756;9.226;2023-05-13T07:13:35;4.13;;;3.73;;
18425;SDS011;9340;48.756;9.226;2023-05-13T07:16:02;5.03;;;4.00;;
18425;SDS011;9340;48.756;9.226;2023-05-13T07:18:29;6.37;;;4.23;;
18425;SDS011;9340;48.756;9.226;2023-05-13T07:20:56;3.93;;;3.63;;
18425;SDS011;9340;48.756;9.226;2023-05-13T07:23:24;4.47;;;4.07;;
18425;SDS011;9340;48.756;9.226;2023-05-13T07:25:51;4.90;;;4.40;;
18425;SDS011;9340;48.756;9.226;2023-05-13T07:28:17;8.33;;;3.80;;
18425;SDS011;9340;48.756;9.226;2023-05-13T07:30:44;4.17;;;3.77;;
18425;SDS011;9340;48.756;9.226;2023-05-13T07:33:11;4.60;;;3.83;;
18425;SDS011;9340;48.756;9.226;2023-05-13T07:35:38;4.00;;;3.70;;
18425;SDS011;9340;48.756;9.226;2023-05-13T07:38:05;5.17;;;4.67;;
18425;SDS011;9340;48.756;9.226;2023-05-13T07:40:35;3.80;;;3.50;;
18425;SDS011;9340;48.756;9.226;2023-05-13T07:43:02;4.17;;;3.83;;
18425;SDS011;9340;48.756;9.226;2023-05-13T07:45:30;5.07;;;4.57;;
18425;SDS011;9340;48.756;9.226;2023-05-13T07:47:57;4.53;;;4.20;;
18425;SDS011;9340;48.756;9.226;2023-05-13T07:50:24;4.82;;;3.97;;
18425;SDS011;9340;48.756;9.226;2023-05-13T07:52:50;5.00;;;3.87;;
18425;SDS011;9340;48.756;9.226;2023-05-13T07:55:17;5.43;;;3.67;;
18425;SDS011;9340;48.756;9.226;2023-05-13T07:57:46;4.40;;;4.00;;
18425;SDS011;9340;48.756;9.226;2023-05-13T08:00:13;4.83;;;4.43;;
18425;SDS011;9340;48.756;9.226;2023-05-13T08:02:40;4.32;;;3.92;;
18425;SDS011;9340;48.756;9.226;2023-05-13T08:05:07;4.32;;;4.03;;
18425;SDS011;9340;48.756;9.226;2023-05-13T08:07:34;4.20;;;3.80;;
18425;SDS011;9340;48.756;9.226;2023-05-13T08:10:01;4.50;;;3.95;;
18425;SDS011;9340;48.756;9.226;2023-05-13T08:12:28;4.40;;;4.00;;
18425;SDS011;9340;48.756;9.226;2023-05-13T08:14:56;5.57;;;4.55;;
18425;SDS011;9340;48.756;9.226;2023-05-13T08:17:22;4.47;;;3.70;;
18425;SDS011;9340;48.756;9.226;2023-05-13T08:19:49;4.50;;;4.10;;
18425;SDS011;9340;48.756;9.226;2023-05-13T08:22:16;4.37;;;4.07;;
18425;SDS011;9340;48.756;9.226;2023-05-13T08:24:42;4.67;;;4.17;;
18425;SDS011;9340;48.756;9.226;2023-05-13T08:27:09;4.47;;;4.07;;
18425;SDS011;9340;48.756;9.226;2023-05-13T08:29:36;4.83;;;4.43;;
18425;SDS011;9340;48.756;9.226;2023-05-13T08:32:05;5.00;;;4.03;;
18425;SDS011;9340;48.756;9.226;2023-05-13T08:34:31;4.80;;;4.27;;
18425;SDS011;9340;48.756;9.226;2023-05-13T08:36:58;4.60;;;4.20;;
18425;SDS011;9340;48.756;9.226;2023-05-13T08:39:25;4.23;;;3.83;;
18425;SDS011;9340;48.756;9.226;2023-05-13T08:41:51;4.10;;;3.80;;
18425;SDS011;9340;48.756;9.226;2023-05-13T08:44:22;4.20;;;3.90;;
18425;SDS011;9340;48.756;9.226;2023-05-13T08:46:56;4.07;;;3.70;;
18425;SDS011;9340;48.756;9.226;2023-05-13T08:49:28;7.17;;;4.20;;
18425;SDS011;9340;48.756;9.226;2023-05-13T08:51:55;4.72;;;4.22;;
18425;SDS011;9340;48.756;9.226;2023-05-13T08:54:22;4.90;;;4.40;;
18425;SDS011;9340;48.756;9.226;2023-05-13T08:56:50;4.90;;;4.40;;
18425;SDS011;9340;48.756;9.226;2023-05-13T08:59:17;4.70;;;4.27;;
18425;SDS011;9340;48.756;9.226;2023-05-13T09:01:43;4.27;;;3.97;;
18425;SDS011;9340;48.756;9.226;2023-05-13T09:04:10;4.73;;;4.30;;
18425;SDS011;9340;48.756;9.226;2023-05-13T09:06:38;4.50;;;4.20;;
18425;SDS011;9340;48.756;9.226;2023-05-13T09:09:05;4.30;;;4.00;;
18425;SDS011;9340;48.756;9.226;2023-05-13T09:11:32;4.43;;;4.03;;
18425;SDS011;9340;48.756;9.226;2023-05-13T09:14:01;4.87;;;4.47;;
18425;SDS011;9340;48.756;9.226;2023-05-13T09:16:31;4.37;;;3.83;;
18425;SDS011;9340;48.756;9.226;2023-05-13T09:18:58;3.95;;;3.65;;
18425;SDS011;9340;48.756;9.226;2023-05-13T09:21:25;4.18;;;3.85;;
18425;SDS011;9340;48.756;9.226;2023-05-13T09:24:09;5.00;;;4.60;;
18425;SDS011;9340;48.756;9.226;2023-05-13T09:26:37;4.30;;;4.00;;
18425;SDS011;9340;48.756;9.226;2023-05-13T09:29:14;5.00;;;4.03;;
18425;SDS011;9340;48.756;9.226;2023-05-13T09:31:41;4.00;;;3.53;;
18425;SDS011;9340;48.756;9.226;2023-05-13T09:34:08;4.45;;;4.05;;
18425;SDS011;9340;48.756;9.226;2023-05-13T09:36:36;4.00;;;3.70;;
18425;SDS011;9340;48.756;9.226;2023-05-13T09:39:03;4.60;;;3.83;;
18425;SDS011;9340;48.756;9.226;2023-05-13T09:41:32;4.63;;;3.75;;
18425;SDS011;9340;48.756;9.226;2023-05-13T09:44:00;4.38;;;3.90;;
18425;SDS011;9340;48.756;9.226;2023-05-13T09:46:29;3.88;;;3.58;;
18425;SDS011;9340;48.756;9.226;2023-05-13T09:48:57;6.38;;;4.15;;
18425;SDS011;9340;48.756;9.226;2023-05-13T09:51:24;7.82;;;5.50;;
18425;SDS011;9340;48.756;9.226;2023-05-13T09:53:52;5.40;;;3.90;;
18425;SDS011;9340;48.756;9.226;2023-05-13T09:56:20;4.40;;;4.05;;
18425;SDS011;9340;48.756;9.226;2023-05-13T09:58:53;4.30;;;3.90;;
18425;SDS011;9340;48.756;9.226;2023-05-13T10:01:20;4.28;;;3.88;;
18425;SDS011;9340;48.756;9.226;2023-05-13T10:03:47;4.07;;;3.78;;
18425;SDS011;9340;48.756;9.226;2023-05-13T10:06:14;3.60;;;3.33;;
18425;SDS011;9340;48.756;9.226;2023-05-13T10:08:42;4.80;;;3.92;;
18425;SDS011;9340;48.756;9.226;2023-05-13T10:11:11;3.67;;;3.40;;
18425;SDS011;9340;48.756;9.226;2023-05-13T10:13:39;3.95;;;3.60;;
18425;SDS011;9340;48.756;9.226;2023-05-13T10:16:08;3.85;;;3.55;;
18425;SDS011;9340;48.756;9.226;2023-05-13T10:18:36;3.65;;;3.30;;
18425;SDS011;9340;48.756;9.226;2023-05-13T10:21:03;3.10;;;2.90;;
18425;SDS011;9340;48.756;9.226;2023-05-13T10:23:31;3.13;;;2.83;;
18425;SDS011;9340;48.756;9.226;2023-05-13T10:25:58;3.90;;;3.10;;
18425;SDS011;9340;48.756;9.226;2023-05-13T10:28:25;3.05;;;2.75;;
18425;SDS011;9340;48.756;9.226;2023-05-13T10:30:53;3.47;;;3.17;;
18425;SDS011;9340;48.756;9.226;2023-05-13T10:33:21;3.53;;;3.08;;
18425;SDS011;9340;48.756;9.226;2023-05-13T10:35:49;2.95;;;2.75;;
18425;SDS011;9340;48.756;9.226;2023-05-13T10:38:27;2.95;;;2.75;;
18425;SDS011;9340;48.756;9.226;2023-05-13T10:41:08;2.95;;;2.63;;
18425;SDS011;9340;48.756;9.226;2023-05-13T10:43:42;3.42;;;3.13;;
18425;SDS011;9340;48.756;9.226;2023-05-13T10:46:10;2.65;;;2.45;;
18425;SDS011;9340;48.756;9.226;2023-05-13T10:48:39;3.00;;;2.63;;
18425;SDS011;9340;48.756;9.226;2023-05-13T10:51:07;2.63;;;2.42;;
18425;SDS011;9340;48.756;9.226;2023-05-13T10:53:35;2.80;;;2.58;;
18425;SDS011;9340;48.756;9.226;2023-05-13T10:56:07;2.63;;;2.42;;
18425;SDS011;9340;48.756;9.226;2023-05-13T10:58:34;2.42;;;2.22;;
18425;SDS011;9340;48.756;9.226;2023-05-13T11:01:11;3.42;;;2.72;;
18425;SDS011;9340;48.756;9.226;2023-05-13T11:03:43;2.90;;;2.70;;
18425;SDS011;9340;48.756;9.226;2023-05-13T11:06:17;3.85;;;3.50;;
18425;SDS011;9340;48.756;9.226;2023-05-13T11:08:45;3.80;;;3.50;;
18425;SDS011;9340;48.756;9.226;2023-05-13T11:11:16;3.90;;;3.50;;
18425;SDS011;9340;48.756;9.226;2023-05-13T11:13:43;4.07;;;3.78;;
18425;SDS011;9340;48.756;9.226;2023-05-13T11:16:11;4.55;;;4.15;;
18425;SDS011;9340;48.756;9.226;2023-05-13T11:18:38;4.38;;;4.07;;
18425;SDS011;9340;48.756;9.226;2023-05-13T11:21:07;4.60;;;4.30;;
18425;SDS011;9340;48.756;9.226;2023-05-13T11:23:49;4.60;;;4.20;;
18425;SDS011;9340;48.756;9.226;2023-05-13T11:26:21;4.68;;;3.97;;
18425;SDS011;9340;48.756;9.226;2023-05-13T11:28:55;4.63;;;4.22;;
18425;SDS011;9340;48.756;9.226;2023-05-13T11:31:24;4.85;;;4.40;;
18425;SDS011;9340;48.756;9.226;2023-05-13T11:34:05;4.63;;;4.22;;
18425;SDS011;9340;48.756;9.226;2023-05-13T11:36:34;4.57;;;4.22;;
18425;SDS011;9340;48.756;9.226;2023-05-13T11:39:08;3.92;;;3.63;;
18425;SDS011;9340;48.756;9.226;2023-05-13T11:41:38;4.00;;;3.63;;
18425;SDS011;9340;48.756;9.226;2023-05-13T11:44:07;4.38;;;3.83;;
18425;SDS011;9340;48.756;9.226;2023-05-13T11:46:35;4.50;;;4.10;;
18425;SDS011;9340;48.756;9.226;2023-05-13T11:49:02;4.15;;;3.67;;
18425;SDS011;9340;48.756;9.226;2023-05-13T11:51:30;4.90;;;4.40;;
18425;SDS011;9340;48.756;9.226;2023-05-13T11:53:59;4.45;;;4.05;;
18425;SDS011;9340;48.756;9.226;2023-05-13T11:56:27;4.07;;;3.78;;
18425;SDS011;9340;48.756;9.226;2023-05-13T11:58:54;3.80;;;3.50;;
18425;SDS011;9340;48.756;9.226;2023-05-13T12:01:21;3.38;;;3.10;;
18425;SDS011;9340;48.756;9.226;2023-05-13T12:03:49;3.80;;;3.38;;
18425;SDS011;9340;48.756;9.226;2023-05-13T12:06:25;4.57;;;4.18;;
18425;SDS011;9340;48.756;9.226;2023-05-13T12:08:54;4.20;;;3.80;;
18425;SDS011;9340;48.756;9.226;2023-05-13T12:11:20;3.88;;;3.58;;
18425;SDS011;9340;48.756;9.226;2023-05-13T12:13:48;4.20;;;3.90;;
18425;SDS011;9340;48.756;9.226;2023-05-13T12:16:15;3.70;;;3.40;;
18425;SDS011;9340;48.756;9.226;2023-05-13T12:18:42;3.80;;;3.28;;
18425;SDS011;9340;48.756;9.226;2023-05-13T12:21:21;5.43;;;3.70;;
18425;SDS011;9340;48.756;9.226;2023-05-13T12:23:47;3.67;;;3.38;;
18425;SDS011;9340;48.756;9.226;2023-05-13T12:26:15;3.80;;;3.50;;
18425;SDS011;9340;48.756;9.226;2023-05-13T12:28:43;4.15;;;3.78;;
18425;SDS011;9340;48.756;9.226;2023-05-13T12:31:14;3.92;;;3.65;;
18425;SDS011;9340;48.756;9.226;2023-05-13T12:33:41;4.47;;;3.90;;
18425;SDS011;9340;48.756;9.226;2023-05-13T12:36:14;5.13;;;3.70;;
18425;SDS011;9340;48.756;9.226;2023-05-13T12:38:56;3.28;;;2.97;;
18425;SDS011;9340;48.756;9.226;2023-05-13T12:41:25;3.55;;;3.25;;
18425;SDS011;9340;48.756;9.226;2023-05-13T12:43:57;3.22;;;3.03;;
18425;SDS011;9340;48.756;9.226;2023-05-13T12:46:24;3.30;;;3.10;;
18425;SDS011;9340;48.756;9.226;2023-05-13T12:48:53;3.78;;;3.38;;
18425;SDS011;9340;48.756;9.226;2023-05-13T12:51:20;3.70;;;2.97;;
18425;SDS011;9340;48.756;9.226;2023-05-13T12:53:47;2.90;;;2.70;;
18425;SDS011;9340;48.756;9.226;2023-05-13T12:56:14;3.10;;;2.85;;
18425;SDS011;9340;48.756;9.226;2023-05-13T12:58:42;3.25;;;3.05;;
18425;SDS011;9340;48.756;9.226;2023-05-13T13:01:08;3.65;;;3.35;;
18425;SDS011;9340;48.756;9.226;2023-05-13T13:03:35;3.22;;;2.90;;
18425;SDS011;9340;48.756;9.226;2023-05-13T13:06:02;3.50;;;3.20;;
18425;SDS011;9340;48.756;9.226;2023-05-13T13:08:29;3.00;;;2.80;;
18425;SDS011;9340;48.756;9.226;2023-05-13T13:10:57;3.45;;;3.15;;
18425;SDS011;9340;48.756;9.226;2023-05-13T13:13:24;3.40;;;2.95;;
18425;SDS011;9340;48.756;9.226;2023-05-13T13:15:52;3.10;;;2.90;;
18425;SDS011;9340;48.756;9.226;2023-05-13T13:18:19;4.55;;;3.55;;
18425;SDS011;9340;48.756;9.226;2023-05-13T13:20:45;3.33;;;3.08;;
18425;SDS011;9340;48.756;9.226;2023-05-13T13:23:12;3.63;;;3.33;;
18425;SDS011;9340;48.756;9.226;2023-05-13T13:25:38;5.15;;;3.70;;
18425;SDS011;9340;48.756;9.226;2023-05-13T13:28:05;3.63;;;3.33;;
18425;SDS011;9340;48.756;9.226;2023-05-13T13:30:32;3.97;;;3.65;;
18425;SDS011;9340;48.756;9.226;2023-05-13T13:33:00;3.95;;;3.65;;
18425;SDS011;9340;48.756;9.226;2023-05-13T13:35:26;4.78;;;3.47;;
18425;SDS011;9340;48.756;9.226;2023-05-13T13:37:53;3.87;;;3.57;;
18425;SDS011;9340;48.756;9.226;2023-05-13T13:40:20;4.03;;;3.72;;
18425;SDS011;9340;48.756;9.226;2023-05-13T13:42:47;3.40;;;3.20;;
18425;SDS011;9340;48.756;9.226;2023-05-13T13:45:14;5.70;;;3.15;;
18425;SDS011;9340;48.756;9.226;2023-05-13T13:47:41;3.97;;;3.67;;
18425;SDS011;9340;48.756;9.226;2023-05-13T13:50:09;4.20;;;3.80;;
18425;SDS011;9340;48.756;9.226;2023-05-13T13:52:36;3.38;;;3.17;;
18425;SDS011;9340;48.756;9.226;2023-05-13T13:55:03;3.85;;;3.55;;
18425;SDS011;9340;48.756;9.226;2023-05-13T13:57:31;3.50;;;3.20;;
18425;SDS011;9340;48.756;9.226;2023-05-13T13:59:57;4.45;;;4.15;;
18425;SDS011;9340;48.756;9.226;2023-05-13T14:02:24;5.03;;;4.63;;
18425;SDS011;9340;48.756;9.226;2023-05-13T14:04:51;5.78;;;5.28;;
18425;SDS011;9340;48.756;9.226;2023-05-13T14:07:19;4.25;;;3.95;;
18425;SDS011;9340;48.756;9.226;2023-05-13T14:09:45;3.90;;;3.60;;
18425;SDS011;9340;48.756;9.226;2023-05-13T14:12:13;4.40;;;4.10;;
18425;SDS011;9340;48.756;9.226;2023-05-13T14:14:40;4.20;;;3.90;;
18425;SDS011;9340;48.756;9.226;2023-05-13T14:17:07;4.18;;;3.88;;
18425;SDS011;9340;48.756;9.226;2023-05-13T14:19:33;3.97;;;3.67;;
18425;SDS011;9340;48.756;9.226;2023-05-13T14:22:00;4.85;;;4.45;;
18425;SDS011;9340;48.756;9.226;2023-05-13T14:24:28;5.72;;;5.32;;
18425;SDS011;9340;48.756;9.226;2023-05-13T14:26:56;4.13;;;3.83;;
18425;SDS011;9340;48.756;9.226;2023-05-13T14:29:23;4.60;;;4.20;;
18425;SDS011;9340;48.756;9.226;2023-05-13T14:31:50;4.68;;;4.25;;
18425;SDS011;9340;48.756;9.226;2023-05-13T14:34:17;4.38;;;4.07;;
18425;SDS011;9340;48.756;9.226;2023-05-13T14:36:44;4.90;;;4.50;;
18425;SDS011;9340;48.756;9.226;2023-05-13T14:39:10;6.13;;;4.70;;
18425;SDS011;9340;48.756;9.226;2023-05-13T14:41:38;5.55;;;4.72;;
18425;SDS011;9340;48.756;9.226;2023-05-13T14:44:06;5.95;;;4.97;;
18425;SDS011;9340;48.756;9.226;2023-05-13T14:46:33;5.60;;;5.05;;
18425;SDS011;9340;48.756;9.226;2023-05-13T14:49:02;5.07;;;4.20;;
18425;SDS011;9340;48.756;9.226;2023-05-13T14:51:28;7.18;;;5.00;;
18425;SDS011;9340;48.756;9.226;2023-05-13T14:53:55;5.40;;;4.90;;
18425;SDS011;9340;48.756;9.226;2023-05-13T14:56:22;4.95;;;4.55;;
18425;SDS011;9340;48.756;9.226;2023-05-13T14:58:50;6.85;;;4.95;;
18425;SDS011;9340;48.756;9.226;2023-05-13T15:01:17;5.38;;;4.95;;
18425;SDS011;9340;48.756;9.226;2023-05-13T15:03:44;6.35;;;5.75;;